createdAt,value
2022-11-19T00:01:34.968Z,24.83
2022-11-19T00:06:32.678Z,17.33
2022-11-19T00:11:48.483Z,17.42
2022-11-19T00:16:46.607Z,19.05
2022-11-19T00:21:44.325Z,15.48
2022-11-19T00:26:41.568Z,16.77
2022-11-19T00:31:39.015Z,13.73
2022-11-19T00:36:36.550Z,17.95
2022-11-19T00:41:33.794Z,13.32
2022-11-19T00:46:31.866Z,15.43
2022-11-19T00:51:30.949Z,16.02
2022-11-19T00:56:28.644Z,15.15
2022-11-19T01:01:26.272Z,17.17
2022-11-19T01:06:25.729Z,17.00
2022-11-19T01:11:26.275Z,16.17
2022-11-19T01:16:27.109Z,19.60
2022-11-19T01:21:27.544Z,14.57
2022-11-19T01:26:25.569Z,17.92
2022-11-19T01:31:28.979Z,15.23
2022-11-19T01:36:28.746Z,16.48
2022-11-19T01:41:29.276Z,12.82
2022-11-19T01:46:29.638Z,17.73
2022-11-19T01:51:40.733Z,14.68
2022-11-19T01:56:38.684Z,16.30
2022-11-19T02:01:36.238Z,20.73
2022-11-19T02:06:36.301Z,14.07
2022-11-19T02:12:06.268Z,15.13
2022-11-19T02:17:17.075Z,20.83
2022-11-19T02:22:45.872Z,18.80
2022-11-19T02:27:46.831Z,19.60
2022-11-19T02:33:15.993Z,18.25
2022-11-19T02:38:39.624Z,17.83
2022-11-19T02:43:41.922Z,19.45
2022-11-19T02:48:48.518Z,19.80
2022-11-19T02:53:49.534Z,13.13
2022-11-19T02:59:12.759Z,17.77
2022-11-19T03:04:30.739Z,12.95
2022-11-19T03:09:34.762Z,16.30
2022-11-19T03:15:27.158Z,14.70
2022-11-19T03:20:30.741Z,14.23
2022-11-19T03:25:34.965Z,17.17
2022-11-19T03:30:42.705Z,12.57
2022-11-19T03:35:58.020Z,12.23
2022-11-19T03:41:01.192Z,12.00
2022-11-19T03:46:03.386Z,13.60
2022-11-19T03:51:11.724Z,13.93
2022-11-19T03:56:15.104Z,14.57
2022-11-19T04:01:13.946Z,14.77
2022-11-19T04:06:12.826Z,9.52
2022-11-19T04:16:07.177Z,11.77
2022-11-19T04:21:05.485Z,9.60
2022-11-19T04:26:05.154Z,8.52
2022-11-19T04:31:03.391Z,7.45
2022-11-19T04:36:11.306Z,12.80
2022-11-19T04:41:10.129Z,12.35
2022-11-19T04:46:09.194Z,15.80
2022-11-19T04:51:07.941Z,8.65
2022-11-19T04:56:07.862Z,10.60
2022-11-19T05:01:11.072Z,11.48
2022-11-19T05:06:09.460Z,10.25
2022-11-19T05:11:07.473Z,11.95
2022-11-19T05:16:08.704Z,9.80
2022-11-19T05:21:07.410Z,9.23
2022-11-19T05:26:05.828Z,8.90
2022-11-19T05:31:09.988Z,10.20
2022-11-19T05:36:08.844Z,12.48
2022-11-19T05:41:07.752Z,9.73
2022-11-19T05:46:09.543Z,9.85
2022-11-19T05:51:07.453Z,9.90
2022-11-19T05:56:07.149Z,11.43
2022-11-19T06:01:05.232Z,9.02
2022-11-19T06:06:02.997Z,13.95
2022-11-19T06:11:04.758Z,10.95
2022-11-19T06:21:05.964Z,10.93
2022-11-19T06:26:09.117Z,10.52
2022-11-19T06:31:06.854Z,8.00
2022-11-19T06:36:07.536Z,8.25
2022-11-19T06:41:05.513Z,12.35
2022-11-19T06:46:03.882Z,8.45
2022-11-19T06:51:02.662Z,7.07
2022-11-19T06:56:05.853Z,8.45
2022-11-19T07:01:05.769Z,11.27
2022-11-19T07:06:05.444Z,8.48
2022-11-19T07:11:25.574Z,7.60
2022-11-19T07:16:24.778Z,10.75
2022-11-19T07:21:24.984Z,8.88
2022-11-19T07:26:24.651Z,10.27
2022-11-19T07:31:32.450Z,9.23
2022-11-19T07:36:34.095Z,14.68
2022-11-19T07:41:58.651Z,12.57
2022-11-19T07:46:56.064Z,11.05
2022-11-19T07:52:00.291Z,14.35
2022-11-19T07:56:58.492Z,12.10
2022-11-19T08:01:55.978Z,9.10
2022-11-19T08:06:54.031Z,11.80
2022-11-19T08:11:51.669Z,9.73
2022-11-19T08:17:07.493Z,8.38
2022-11-19T08:22:14.871Z,8.30
2022-11-19T08:27:17.931Z,7.88
2022-11-19T08:32:15.842Z,7.07
2022-11-19T08:37:13.757Z,7.28
2022-11-19T08:42:29.948Z,5.90
2022-11-19T08:47:27.530Z,7.40
2022-11-19T08:52:25.000Z,8.05
2022-11-19T08:57:22.841Z,6.95
2022-11-19T09:02:30.023Z,7.22
2022-11-19T09:07:28.721Z,8.45
2022-11-19T09:12:26.272Z,7.95
2022-11-19T09:17:23.601Z,5.50
2022-11-19T09:22:21.728Z,7.03
2022-11-19T09:27:19.663Z,8.15
2022-11-19T09:32:22.442Z,11.27
2022-11-19T09:37:22.422Z,13.13
2022-11-19T09:42:52.921Z,7.97
2022-11-19T09:48:14.143Z,7.07
2022-11-19T09:58:22.449Z,5.43
2022-11-19T10:03:28.657Z,6.82
2022-11-19T10:08:41.518Z,9.68
2022-11-19T10:13:44.931Z,10.67
2022-11-19T10:18:45.123Z,7.97
2022-11-19T10:23:47.884Z,7.00
2022-11-19T10:28:56.952Z,7.00
2022-11-19T10:34:16.197Z,8.03
2022-11-19T10:39:22.150Z,15.07
2022-11-19T10:44:42.215Z,4.65
2022-11-19T10:49:42.290Z,7.63
2022-11-19T10:54:40.888Z,7.15
2022-11-19T10:59:40.917Z,6.63
2022-11-19T11:05:09.587Z,5.93
2022-11-19T11:10:32.466Z,4.90
2022-11-19T11:15:29.761Z,5.95
2022-11-19T11:20:29.315Z,4.45
2022-11-19T11:25:28.682Z,6.65
2022-11-19T11:30:25.877Z,5.33
2022-11-19T11:35:35.766Z,5.10
2022-11-19T11:40:33.219Z,5.97
2022-11-19T11:45:36.075Z,8.85
2022-11-19T11:50:34.803Z,5.05
2022-11-19T11:55:33.359Z,4.18
2022-11-19T12:00:42.061Z,7.22
2022-11-19T12:06:03.450Z,4.38
2022-11-19T12:11:58.246Z,7.00
2022-11-19T12:17:34.072Z,5.10
2022-11-19T12:22:31.332Z,7.95
2022-11-19T12:27:47.312Z,7.43
2022-11-19T12:32:47.669Z,7.82
2022-11-19T12:38:22.178Z,7.20
2022-11-19T12:43:25.718Z,9.18
2022-11-19T12:48:32.024Z,6.25
2022-11-19T12:53:37.291Z,5.20
2022-11-19T12:58:40.167Z,6.43
2022-11-19T13:03:59.690Z,8.63
2022-11-19T13:09:02.603Z,11.20
2022-11-19T13:14:03.688Z,9.93
2022-11-19T13:19:19.523Z,6.18
2022-11-19T13:24:20.343Z,9.48
2022-11-19T13:29:36.533Z,5.30
2022-11-19T13:35:13.753Z,5.22
2022-11-19T13:40:52.363Z,7.60
2022-11-19T13:46:20.029Z,7.85
2022-11-19T13:51:26.585Z,9.57
2022-11-19T13:56:36.763Z,10.13
2022-11-19T14:01:42.662Z,10.75
2022-11-19T14:06:57.781Z,10.20
2022-11-19T14:12:19.728Z,10.05
2022-11-19T14:17:58.303Z,8.93
2022-11-19T14:23:15.478Z,8.40
2022-11-19T14:28:48.842Z,9.85
2022-11-19T14:33:48.893Z,10.95
2022-11-19T14:38:56.341Z,8.73
2022-11-19T14:44:11.440Z,13.82
2022-11-19T14:49:31.963Z,7.53
2022-11-19T14:54:43.973Z,7.78
2022-11-19T14:59:48.055Z,7.50
2022-11-19T15:04:54.286Z,9.10
2022-11-19T15:10:13.010Z,8.52
2022-11-19T15:15:19.954Z,15.60
2022-11-19T15:20:37.839Z,8.70
2022-11-19T15:25:38.168Z,11.00
2022-11-19T15:31:11.335Z,17.60
2022-11-19T15:36:14.525Z,15.38
2022-11-19T15:41:16.120Z,13.77
2022-11-19T15:46:16.709Z,9.20
2022-11-19T15:51:16.778Z,12.98
2022-11-19T15:56:14.712Z,10.73
2022-11-19T16:01:17.558Z,9.85
2022-11-19T16:06:20.092Z,14.38
2022-11-19T16:11:39.101Z,11.70
2022-11-19T16:16:54.981Z,13.00
2022-11-19T16:22:00.009Z,21.02
2022-11-19T16:27:00.281Z,13.48
2022-11-19T16:31:59.915Z,22.20
2022-11-19T16:36:57.803Z,21.73
2022-11-19T16:42:17.146Z,28.05
2022-11-19T16:47:34.711Z,18.38
2022-11-19T16:52:34.928Z,20.70
2022-11-19T17:02:36.583Z,16.73
2022-11-19T17:07:34.045Z,21.25
2022-11-19T17:12:34.762Z,23.52
2022-11-19T17:17:40.315Z,18.83
2022-11-19T17:22:40.158Z,23.13
2022-11-19T17:27:38.599Z,16.27
2022-11-19T17:33:13.910Z,17.75
2022-11-19T17:38:18.564Z,11.60
2022-11-19T17:43:55.995Z,17.13
2022-11-19T17:48:54.116Z,13.20
2022-11-19T17:53:53.435Z,9.43
2022-11-19T17:58:50.769Z,12.32
2022-11-19T18:03:48.346Z,14.02
2022-11-19T18:08:46.158Z,20.90
2022-11-19T18:13:45.089Z,17.58
2022-11-19T18:18:42.418Z,17.83
2022-11-19T18:23:41.206Z,12.13
2022-11-19T18:28:38.974Z,14.27
2022-11-19T18:33:36.712Z,14.82
2022-11-19T18:38:34.765Z,20.50
2022-11-19T18:43:50.350Z,19.42
2022-11-19T18:48:47.842Z,12.55
2022-11-19T18:53:45.036Z,18.40
2022-11-19T18:58:42.590Z,18.80
2022-11-19T19:03:40.050Z,13.90
2022-11-19T19:08:37.370Z,15.32
2022-11-19T19:13:34.605Z,25.73
2022-11-19T19:18:31.993Z,16.88
2022-11-19T19:23:29.245Z,15.70
2022-11-19T19:28:26.409Z,18.10
2022-11-19T19:33:24.183Z,26.80
2022-11-19T19:38:22.076Z,19.40
2022-11-19T19:43:19.270Z,25.95
2022-11-19T19:48:16.451Z,23.00
2022-11-19T19:53:13.690Z,17.95
2022-11-19T19:58:10.970Z,25.08
2022-11-19T20:03:08.161Z,28.92
2022-11-19T20:08:05.565Z,31.88
2022-11-19T20:13:21.973Z,31.25
2022-11-19T20:18:19.190Z,25.30
2022-11-19T20:23:16.521Z,28.13
2022-11-19T20:28:13.865Z,29.27
2022-11-19T20:33:11.065Z,15.55
2022-11-19T20:38:08.212Z,21.70
2022-11-19T20:43:23.826Z,20.38
2022-11-19T20:48:21.207Z,36.65
2022-11-19T20:53:18.915Z,22.08
2022-11-19T20:58:16.469Z,34.55
2022-11-19T21:03:13.815Z,20.45
2022-11-19T21:08:11.214Z,26.25
2022-11-19T21:13:08.430Z,21.10
2022-11-19T21:18:05.847Z,23.15
2022-11-19T21:23:03.017Z,19.33
2022-11-19T21:28:00.675Z,23.48
2022-11-19T21:32:58.134Z,18.48
2022-11-19T21:37:55.349Z,25.27
2022-11-19T21:42:52.732Z,23.83
2022-11-19T21:47:49.915Z,23.05
2022-11-19T21:52:47.254Z,23.25
2022-11-19T21:57:44.470Z,20.65
2022-11-19T22:02:42.081Z,19.98
2022-11-19T22:07:39.407Z,15.45
2022-11-19T22:12:36.725Z,12.55
2022-11-19T22:17:34.125Z,9.25
2022-11-19T22:22:31.366Z,13.98
2022-11-19T22:27:29.595Z,13.32
2022-11-19T22:32:26.875Z,12.80
2022-11-19T22:37:24.043Z,7.25
2022-11-19T22:42:21.321Z,10.52
2022-11-19T22:47:18.603Z,5.18
2022-11-19T22:52:17.612Z,4.97
2022-11-19T22:57:14.865Z,5.03
2022-11-19T23:02:12.217Z,6.30
2022-11-19T23:07:09.626Z,7.05
2022-11-19T23:12:25.515Z,7.95
2022-11-19T23:17:22.790Z,13.07
2022-11-19T23:22:20.066Z,9.63
2022-11-19T23:27:21.937Z,8.38
2022-11-19T23:32:19.790Z,7.93
2022-11-19T23:37:17.061Z,7.28
2022-11-19T23:42:14.860Z,6.82
2022-11-19T23:47:12.088Z,9.50
2022-11-19T23:52:09.333Z,8.40
2022-11-19T23:57:06.752Z,8.25
